Time;durP1;ratioP1;P1;durP2;ratioP2;P2;SDS_P1;SDS_P2;PMS_P1;PMS_P2;Temp;Humidity;BMP_temperature;BMP_pressure;BME280_temperature;BME280_humidity;BME280_pressure;Samples;Min_cycle;Max_cycle;Signal;HPM_P1;HPM_P2
2022/08/20 00:00:23;;;;;;;7.80;4.50;;;;;;;29.16;45.25;100400.36;104578;1307;61261;-80
2022/08/20 00:02:50;;;;;;;5.90;4.50;;;;;;;29.15;45.11;100397.84;104621;1309;74881;-80
2022/08/20 00:05:23;;;;;;;8.30;4.90;;;;;;;29.15;45.01;100398.38;104622;1309;61286;-81
2022/08/20 00:07:49;;;;;;;6.50;4.90;;;;;;;29.15;45.18;100399.27;104548;1308;61138;-80
2022/08/20 00:10:15;;;;;;;6.50;4.70;;;;;;;29.16;45.02;100400.86;104551;1309;61276;-81
2022/08/20 00:12:45;;;;;;;5.70;4.60;;;;;;;29.15;45.22;100401.45;104602;1309;61244;-81
2022/08/20 00:15:11;;;;;;;5.80;4.60;;;;;;;29.15;45.10;100403.07;104501;1309;61140;-80
2022/08/20 00:17:38;;;;;;;5.60;4.20;;;;;;;29.16;45.00;100402.88;104514;1307;61284;-80
2022/08/20 00:20:05;;;;;;;5.30;4.00;;;;;;;29.15;45.10;100407.96;104617;1309;61224;-80
2022/08/20 00:22:31;;;;;;;6.50;4.60;;;;;;;29.16;45.05;100407.41;104731;1309;74795;-80
2022/08/20 00:24:56;;;;;;;6.20;4.90;;;;;;;29.16;45.08;100405.93;104770;1308;61313;-80
2022/08/20 00:27:22;;;;;;;5.50;4.40;;;;;;;29.16;45.24;100403.38;104731;1308;61301;-80
2022/08/20 00:29:48;;;;;;;5.90;4.40;;;;;;;29.16;45.29;100395.94;104720;1309;59335;-80
2022/08/20 00:32:13;;;;;;;5.50;4.50;;;;;;;29.16;45.27;100392.35;104783;1309;61381;-80
2022/08/20 00:34:41;;;;;;;5.70;4.50;;;;;;;29.16;45.26;100390.64;104681;1308;75697;-80
2022/08/20 00:37:07;;;;;;;5.60;4.10;;;;;;;29.16;45.39;100389.56;104744;1308;61175;-80
2022/08/20 00:39:34;;;;;;;7.60;4.30;;;;;;;29.17;45.25;100387.10;104677;1309;60476;-81
2022/08/20 00:41:59;;;;;;;5.90;4.10;;;;;;;29.17;45.14;100386.94;104605;1309;61309;-80
2022/08/20 00:44:25;;;;;;;5.30;4.40;;;;;;;29.17;45.19;100391.52;104535;1309;61316;-80
2022/08/20 00:46:51;;;;;;;6.90;4.90;;;;;;;29.17;45.21;100394.54;104518;1309;61455;-80
2022/08/20 00:49:23;;;;;;;5.70;4.60;;;;;;;29.17;45.33;100392.19;104498;1309;61291;-80
2022/08/20 00:52:13;;;;;;;6.30;4.50;;;;;;;29.17;45.29;100394.91;104581;1309;73730;-81
2022/08/20 00:54:48;;;;;;;5.60;4.40;;;;;;;29.17;45.19;100394.44;104408;1309;74864;-81
2022/08/20 00:57:36;;;;;;;6.20;4.60;;;;;;;29.17;45.16;100394.95;104600;1309;61233;-80
2022/08/20 01:00:07;;;;;;;6.50;4.50;;;;;;;29.16;45.24;100392.13;104552;1307;61173;-80
2022/08/20 01:02:33;;;;;;;5.60;4.40;;;;;;;29.16;45.34;100389.24;104588;1307;72877;-80
2022/08/20 01:04:59;;;;;;;6.00;4.40;;;;;;;29.16;45.18;100389.29;104637;1309;74678;-79
2022/08/20 01:07:33;;;;;;;6.10;4.50;;;;;;;29.15;45.08;100385.67;104598;1308;61262;-79
2022/08/20 01:10:11;;;;;;;5.40;4.30;;;;;;;29.15;45.22;100381.70;104595;1309;61542;-80
2022/08/20 01:12:38;;;;;;;5.70;4.50;;;;;;;29.15;45.02;100380.61;104603;1308;72905;-80
2022/08/20 01:15:05;;;;;;;6.10;4.30;;;;;;;29.15;45.23;100380.48;104607;1309;75583;-80
2022/08/20 01:17:33;;;;;;;5.30;4.20;;;;;;;29.15;45.25;100384.11;104540;1309;61359;-80
2022/08/20 01:20:29;;;;;;;4.90;4.10;;;;;;;29.15;45.27;100377.42;104633;1307;61144;-80
2022/08/20 01:23:28;;;;;;;6.20;4.80;;;;;;;29.14;45.21;100372.30;104602;1309;73761;-80
2022/08/20 01:26:16;;;;;;;5.60;4.20;;;;;;;29.14;45.41;100369.58;104592;1309;75559;-80
2022/08/20 01:28:54;;;;;;;5.40;4.30;;;;;;;29.13;45.29;100367.40;104544;1309;61161;-80
2022/08/20 01:31:31;;;;;;;5.40;4.20;;;;;;;29.13;45.16;100363.50;104619;1308;61170;-80
2022/08/20 01:33:58;;;;;;;5.60;4.40;;;;;;;29.13;45.26;100363.30;104583;1309;73153;-80
2022/08/20 01:36:30;;;;;;;7.20;4.60;;;;;;;29.13;45.27;100360.41;104564;1309;74771;-80
2022/08/20 01:38:58;;;;;;;6.20;4.30;;;;;;;29.12;45.26;100358.14;104535;1309;61632;-80
2022/08/20 01:41:34;;;;;;;6.60;4.50;;;;;;;29.12;45.28;100358.14;104507;1309;61150;-80
2022/08/20 01:44:00;;;;;;;6.90;4.60;;;;;;;29.12;45.17;100357.05;104594;1308;73170;-79
2022/08/20 01:46:29;;;;;;;5.20;4.00;;;;;;;29.12;45.11;100357.80;104525;1309;61387;-79
2022/08/20 01:48:54;;;;;;;;;;;;;;;29.12;45.18;100358.13;104531;1309;63087;-81
2022/08/20 01:51:26;;;;;;;5.60;4.50;;;;;;;29.10;45.50;100356.95;104605;1308;61278;-80
2022/08/20 01:53:52;;;;;;;5.10;4.30;;;;;;;29.10;45.39;100354.38;104627;1308;72722;-80
2022/08/20 01:56:21;;;;;;;5.30;4.10;;;;;;;29.10;45.19;100356.71;104632;1308;75862;-81
2022/08/20 01:58:48;;;;;;;5.70;4.20;;;;;;;29.10;45.20;100354.95;104583;1309;62620;-80
2022/08/20 02:01:27;;;;;;;5.60;4.30;;;;;;;29.10;45.15;100356.20;104599;1308;61435;-80
2022/08/20 02:03:53;;;;;;;;;;;;;;;29.10;45.32;100355.12;104599;1309;72733;-80
2022/08/20 02:06:19;;;;;;;6.50;4.00;;;;;;;29.08;45.23;100350.67;104547;1309;61276;-80
2022/08/20 02:08:45;;;;;;;4.90;4.10;;;;;;;29.08;45.15;100349.69;104544;1309;61337;-82
2022/08/20 02:11:11;;;;;;;5.90;3.90;;;;;;;29.08;45.22;100346.97;104607;1309;61311;-81
2022/08/20 02:13:39;;;;;;;5.60;4.20;;;;;;;29.09;45.17;100347.98;104520;1308;61256;-81
2022/08/20 02:16:05;;;;;;;5.40;4.40;;;;;;;29.09;45.14;100346.39;104583;1309;61397;-81
2022/08/20 02:18:31;;;;;;;6.00;4.60;;;;;;;29.08;45.36;100346.56;104573;1308;61417;-81
2022/08/20 02:20:57;;;;;;;5.90;3.90;;;;;;;29.08;45.22;100337.89;104625;1308;61462;-81
2022/08/20 02:23:23;;;;;;;6.40;4.80;;;;;;;29.08;45.22;100334.27;104486;1308;61274;-81
2022/08/20 02:25:48;;;;;;;5.70;4.20;;;;;;;29.09;45.13;100328.80;104623;1308;61446;-81
2022/08/20 02:28:16;;;;;;;6.10;4.70;;;;;;;29.09;45.19;100327.67;104552;1307;61274;-81
2022/08/20 02:30:45;;;;;;;5.30;4.30;;;;;;;29.09;45.22;100327.70;104600;1309;61163;-81
2022/08/20 02:33:11;;;;;;;6.00;4.00;;;;;;;29.08;45.34;100328.08;104485;1308;61318;-81
2022/08/20 02:35:41;;;;;;;7.70;4.80;;;;;;;29.09;45.36;100326.38;104625;1308;74331;-81
2022/08/20 02:38:08;;;;;;;5.70;4.10;;;;;;;29.09;45.27;100324.58;104495;1309;61275;-81
2022/08/20 02:40:34;;;;;;;5.50;3.90;;;;;;;29.09;45.38;100321.18;104623;1309;60673;-82
2022/08/20 02:43:00;;;;;;;6.10;4.20;;;;;;;29.09;45.33;100318.27;104536;1308;72840;-80
2022/08/20 02:45:26;;;;;;;5.60;4.80;;;;;;;29.09;45.17;100323.32;104497;1309;61445;-80
2022/08/20 02:47:52;;;;;;;7.60;4.20;;;;;;;29.09;45.35;100324.95;104467;1309;61268;-80
2022/08/20 02:50:20;;;;;;;5.80;4.20;;;;;;;29.08;45.19;100324.65;104570;1308;61368;-80
2022/08/20 02:52:45;;;;;;;6.00;4.20;;;;;;;29.09;45.33;100326.25;104493;1307;61369;-81
2022/08/20 02:55:12;;;;;;;5.50;4.10;;;;;;;29.09;45.53;100328.80;104598;1308;61284;-80
2022/08/20 02:57:38;;;;;;;6.00;4.10;;;;;;;29.09;45.50;100332.02;104625;1309;61166;-80
2022/08/20 03:00:12;;;;;;;6.50;4.50;;;;;;;29.08;45.36;100333.73;104474;1309;61197;-80
2022/08/20 03:02:39;;;;;;;5.70;4.60;;;;;;;29.09;45.34;100337.48;104553;1309;72892;-79
2022/08/20 03:05:05;;;;;;;4.90;4.40;;;;;;;29.08;45.30;100334.64;103460;1309;1451033;-79
2022/08/20 03:07:31;;;;;;;6.70;4.60;;;;;;;29.09;45.53;100336.23;104519;1309;61285;-79
2022/08/20 03:09:56;;;;;;;5.50;4.10;;;;;;;29.09;45.38;100338.41;104583;1307;61215;-79
2022/08/20 03:12:22;;;;;;;5.50;4.20;;;;;;;29.08;45.37;100347.52;104594;1308;61114;-80
2022/08/20 03:14:48;;;;;;;5.70;4.20;;;;;;;29.08;45.57;100345.68;104511;1309;61282;-80
2022/08/20 03:17:15;;;;;;;6.00;4.00;;;;;;;29.09;45.35;100351.45;104500;1309;61309;-81
2022/08/20 03:19:40;;;;;;;5.70;4.20;;;;;;;29.08;45.53;100355.10;104512;1309;61297;-81
2022/08/20 03:22:06;;;;;;;6.90;4.30;;;;;;;29.08;45.57;100356.95;104652;1308;61372;-81
2022/08/20 03:24:32;;;;;;;5.90;4.20;;;;;;;29.08;45.43;100356.07;104496;1309;73754;-81
2022/08/20 03:26:57;;;;;;;5.90;4.50;;;;;;;29.08;45.53;100362.53;104583;1309;61381;-80
2022/08/20 03:29:23;;;;;;;5.40;4.30;;;;;;;29.08;45.40;100366.58;104504;1309;61310;-80
2022/08/20 03:31:49;;;;;;;5.70;4.20;;;;;;;29.08;45.57;100372.34;104521;1309;61271;-80
2022/08/20 03:34:15;;;;;;;6.20;4.10;;;;;;;29.08;45.50;100379.79;104591;1308;61365;-80
2022/08/20 03:36:41;;;;;;;6.20;4.30;;;;;;;29.08;45.16;100378.88;104591;1309;61221;-81
2022/08/20 03:39:12;;;;;;;5.20;3.80;;;;;;;29.08;45.46;100379.61;104589;1309;75671;-80
2022/08/20 03:41:38;;;;;;;6.10;3.90;;;;;;;29.08;45.35;100386.10;104511;1309;61347;-81
2022/08/20 03:44:05;;;;;;;4.90;3.90;;;;;;;29.08;45.36;100383.41;104570;1308;61285;-81
2022/08/20 03:46:32;;;;;;;6.40;4.60;;;;;;;29.08;45.47;100386.10;104369;1309;72686;-79
2022/08/20 03:48:57;;;;;;;5.60;4.40;;;;;;;29.08;45.28;100383.79;104485;1308;61317;-81
2022/08/20 03:51:23;;;;;;;5.70;4.30;;;;;;;29.08;45.52;100385.39;104565;1309;61409;-81
2022/08/20 03:53:49;;;;;;;4.80;3.90;;;;;;;29.08;45.41;100380.36;104570;1309;61268;-81
2022/08/20 03:56:16;;;;;;;8.50;4.20;;;;;;;29.08;45.51;100379.98;104508;1308;61417;-81
2022/08/20 03:58:42;;;;;;;5.40;4.00;;;;;;;29.08;45.47;100380.54;104560;1309;61306;-81
2022/08/20 04:01:07;;;;;;;6.10;4.30;;;;;;;29.08;45.57;100378.70;104522;1308;61139;-81
2022/08/20 04:03:33;;;;;;;5.60;4.00;;;;;;;29.08;45.62;100379.81;104584;1309;61372;-81
2022/08/20 04:05:59;;;;;;;5.30;4.20;;;;;;;29.08;45.53;100371.64;104524;1308;61288;-81
2022/08/20 04:08:26;;;;;;;5.10;4.10;;;;;;;29.08;45.46;100371.47;104424;1309;73643;-81
2022/08/20 04:10:52;;;;;;;5.50;4.00;;;;;;;29.08;45.57;100368.89;104508;1309;75941;-81
2022/08/20 04:13:20;;;;;;;5.80;4.30;;;;;;;29.08;45.57;100365.99;104475;1306;61387;-81
2022/08/20 04:15:46;;;;;;;6.10;4.60;;;;;;;29.08;45.38;100369.09;104403;1309;61220;-81
2022/08/20 04:18:11;;;;;;;6.90;4.40;;;;;;;29.08;45.36;100372.86;104568;1309;61276;-81
2022/08/20 04:20:39;;;;;;;5.40;4.10;;;;;;;29.09;45.57;100369.21;104585;1308;61282;-81
2022/08/20 04:23:04;;;;;;;5.70;4.10;;;;;;;29.09;45.53;100369.55;104520;1309;61266;-81
2022/08/20 04:25:32;;;;;;;6.20;4.50;;;;;;;29.09;45.48;100368.85;104536;1309;61250;-81
2022/08/20 04:27:59;;;;;;;5.80;4.40;;;;;;;29.09;45.50;100369.17;104609;1307;61355;-81
2022/08/20 04:30:25;;;;;;;6.10;4.40;;;;;;;29.09;45.71;100371.90;104591;1308;61564;-82
2022/08/20 04:32:52;;;;;;;5.30;4.10;;;;;;;29.09;45.45;100379.51;104529;1309;61513;-82
2022/08/20 04:35:17;;;;;;;6.20;4.60;;;;;;;29.09;45.52;100382.22;104425;1309;61295;-82
2022/08/20 04:37:45;;;;;;;5.60;4.30;;;;;;;29.09;45.46;100382.23;104529;1309;61287;-81
2022/08/20 04:43:08;;;;;;;5.40;4.20;;;;;;;29.09;45.65;100381.69;104169;1309;61282;-81
2022/08/20 04:45:33;;;;;;;5.40;4.20;;;;;;;29.09;45.62;100382.95;104596;1308;61246;-82
2022/08/20 04:48:04;;;;;;;4.90;4.00;;;;;;;29.09;45.70;100386.71;104500;1309;61323;-82
2022/08/20 04:50:34;;;;;;;6.10;4.40;;;;;;;29.09;45.49;100388.52;104436;1309;76032;-82
2022/08/20 04:53:05;;;;;;;6.40;4.30;;;;;;;29.09;45.72;100390.87;104533;1309;61050;-82
2022/08/20 04:55:32;;;;;;;5.70;4.50;;;;;;;29.10;45.62;100393.36;104568;1309;61632;-82
2022/08/20 04:58:05;;;;;;;5.40;4.10;;;;;;;29.10;45.60;100392.04;104519;1309;74044;-82
2022/08/20 05:00:31;;;;;;;5.80;4.40;;;;;;;29.10;45.63;100393.14;104649;1309;73958;-81
2022/08/20 05:02:57;;;;;;;5.60;3.90;;;;;;;29.10;45.65;100391.50;104621;1309;61285;-81
2022/08/20 05:05:23;;;;;;;6.20;4.20;;;;;;;29.11;45.58;100393.27;104578;1309;61313;-79
2022/08/20 05:07:49;;;;;;;6.40;4.00;;;;;;;29.11;45.69;100394.14;104602;1309;61275;-79
2022/08/20 05:10:16;;;;;;;6.40;4.00;;;;;;;29.11;45.53;100393.02;104578;1308;61290;-81
2022/08/20 05:12:42;;;;;;;7.50;4.50;;;;;;;29.12;45.63;100390.82;104505;1309;61252;-81
2022/08/20 05:15:11;;;;;;;7.90;4.50;;;;;;;29.12;45.75;100388.23;104654;1309;61294;-81
2022/08/20 05:17:38;;;;;;;7.00;4.20;;;;;;;29.12;45.81;100389.12;104600;1309;73747;-81
2022/08/20 05:20:05;;;;;;;5.90;4.10;;;;;;;29.13;45.61;100389.83;104580;1309;77062;-81
2022/08/20 05:22:31;;;;;;;5.80;4.30;;;;;;;29.13;45.94;100392.69;104487;1308;60471;-81
2022/08/20 05:24:59;;;;;;;6.10;4.20;;;;;;;29.14;46.05;100391.86;104631;1308;61301;-81
2022/08/20 05:27:25;;;;;;;5.80;4.20;;;;;;;29.14;46.12;100391.33;104561;1309;72648;-81
2022/08/20 05:30:06;;;;;;;7.40;4.30;;;;;;;29.14;46.08;100395.23;104585;1308;61394;-79
2022/08/20 05:32:32;;;;;;;6.30;4.40;;;;;;;29.15;46.38;100397.37;104613;1308;61260;-81
2022/08/20 05:35:00;;;;;;;5.30;4.20;;;;;;;29.15;46.34;100395.70;104620;1309;61396;-81
2022/08/20 05:37:26;;;;;;;6.30;4.60;;;;;;;29.16;46.31;100397.98;104482;1307;72754;-81
2022/08/20 05:39:52;;;;;;;5.90;4.10;;;;;;;29.16;46.41;100395.73;104574;1309;61167;-81
2022/08/20 05:42:20;;;;;;;5.70;4.00;;;;;;;29.17;46.27;100395.67;104622;1309;61231;-81
2022/08/20 05:44:45;;;;;;;6.90;4.40;;;;;;;29.17;46.40;100394.71;104577;1309;61386;-81
2022/08/20 05:47:11;;;;;;;6.40;4.20;;;;;;;29.18;46.53;100396.98;104601;1309;61295;-81
2022/08/20 05:49:37;;;;;;;6.10;4.30;;;;;;;29.19;46.41;100402.17;104451;1309;61393;-81
2022/08/20 05:52:04;;;;;;;6.10;4.80;;;;;;;29.19;46.14;100400.63;104573;1309;61310;-81
2022/08/20 05:54:30;;;;;;;5.90;4.30;;;;;;;29.20;46.41;100402.38;104605;1308;61367;-81
2022/08/20 05:56:56;;;;;;;7.40;4.60;;;;;;;29.21;46.39;100405.92;104590;1309;61268;-81
2022/08/20 05:59:23;;;;;;;6.40;4.30;;;;;;;29.21;46.41;100407.27;104588;1308;61600;-81
2022/08/20 06:01:49;;;;;;;6.30;4.50;;;;;;;29.22;46.42;100406.16;104615;1309;61310;-81
2022/08/20 06:04:23;;;;;;;8.60;4.60;;;;;;;29.23;46.64;100405.16;104628;1309;61226;-81
2022/08/20 06:07:04;;;;;;;6.20;4.50;;;;;;;29.23;46.59;100409.99;104542;1309;61414;-81
2022/08/20 06:09:29;;;;;;;6.30;4.50;;;;;;;29.24;46.47;100409.17;104575;1308;73812;-81
2022/08/20 06:11:56;;;;;;;6.00;4.30;;;;;;;29.24;46.51;100408.80;104567;1308;62100;-81
2022/08/20 06:14:21;;;;;;;6.30;4.20;;;;;;;29.25;46.64;100405.61;104392;1309;61351;-81
2022/08/20 06:16:47;;;;;;;7.60;4.60;;;;;;;29.26;46.58;100409.52;104556;1309;61265;-81
2022/08/20 06:19:13;;;;;;;6.30;4.50;;;;;;;29.26;46.58;100401.86;104578;1309;61337;-81
2022/08/20 06:21:39;;;;;;;6.00;4.40;;;;;;;29.27;46.35;100406.92;104618;1308;61305;-81
2022/08/20 06:24:05;;;;;;;6.70;4.40;;;;;;;29.27;46.45;100405.56;104506;1309;61345;-80
2022/08/20 06:26:33;;;;;;;4.90;4.00;;;;;;;29.28;46.27;100403.14;104414;1309;60515;-80
2022/08/20 06:29:02;;;;;;;5.80;4.40;;;;;;;29.29;46.35;100398.73;104592;1309;61749;-80
2022/08/20 06:31:28;;;;;;;5.90;4.40;;;;;;;29.29;46.43;100397.39;104572;1309;72700;-80
2022/08/20 06:33:54;;;;;;;6.20;4.40;;;;;;;29.30;46.64;100403.14;104536;1309;61332;-80
2022/08/20 06:36:19;;;;;;;5.90;4.70;;;;;;;29.31;46.38;100399.98;104604;1308;61279;-80
2022/08/20 06:38:45;;;;;;;6.10;4.30;;;;;;;29.31;46.45;100398.11;104634;1309;61389;-80
2022/08/20 06:41:11;;;;;;;6.80;4.50;;;;;;;29.31;46.55;100396.65;104570;1309;61424;-80
2022/08/20 06:43:36;;;;;;;6.40;4.50;;;;;;;29.32;46.54;100395.28;104627;1308;61290;-80
2022/08/20 06:46:03;;;;;;;5.80;4.30;;;;;;;29.33;46.33;100393.96;104379;1309;75814;-80
2022/08/20 06:48:29;;;;;;;9.00;4.30;;;;;;;29.32;46.55;100393.95;104593;1308;61144;-80
2022/08/20 06:50:55;;;;;;;6.30;4.30;;;;;;;29.33;46.50;100394.61;104498;1309;61293;-80
2022/08/20 06:53:21;;;;;;;5.80;4.10;;;;;;;29.33;46.28;100391.52;104596;1308;61268;-80
2022/08/20 06:55:53;;;;;;;5.60;4.30;;;;;;;29.34;46.46;100390.00;104559;1309;61305;-80
2022/08/20 06:58:21;;;;;;;7.10;4.30;;;;;;;29.34;46.33;100393.58;104583;1309;61649;-80
2022/08/20 07:00:47;;;;;;;6.00;4.40;;;;;;;29.34;46.31;100391.91;104610;1308;61369;-80
2022/08/20 07:03:14;;;;;;;6.20;4.40;;;;;;;29.35;46.43;100387.49;104419;1309;71711;-80
2022/08/20 07:05:41;;;;;;;6.90;4.20;;;;;;;29.35;46.53;100387.09;104464;1309;61130;-80
2022/08/20 07:08:12;;;;;;;6.80;4.50;;;;;;;29.36;46.23;100384.51;104540;1307;61265;-80
2022/08/20 07:10:39;;;;;;;5.60;4.00;;;;;;;29.36;46.60;100380.33;104529;1309;61156;-80
2022/08/20 07:13:05;;;;;;;7.10;4.40;;;;;;;29.37;46.62;100376.45;104582;1309;75126;-79
2022/08/20 07:15:31;;;;;;;6.10;4.30;;;;;;;29.37;46.41;100379.52;104531;1309;61408;-81
2022/08/20 07:18:00;;;;;;;6.30;4.20;;;;;;;29.37;46.46;100378.05;104444;1308;61398;-80
2022/08/20 07:20:27;;;;;;;6.70;4.40;;;;;;;29.38;46.24;100378.11;104579;1309;61390;-80
2022/08/20 07:22:52;;;;;;;5.70;4.20;;;;;;;29.38;46.52;100377.55;104583;1309;61295;-81
2022/08/20 07:25:19;;;;;;;5.50;4.50;;;;;;;29.38;46.44;100379.54;104514;1309;61347;-80
2022/08/20 07:27:44;;;;;;;7.90;4.40;;;;;;;29.39;46.32;100382.89;104455;1309;61415;-78
2022/08/20 07:32:58;;;;;;;6.40;4.30;;;;;;;29.39;46.44;100383.58;104569;1308;72573;-81
2022/08/20 07:35:24;;;;;;;6.60;4.40;;;;;;;29.39;46.37;100380.52;104574;1307;61298;-81
2022/08/20 07:37:50;;;;;;;5.60;4.20;;;;;;;29.39;46.46;100386.42;104430;1309;61367;-81
2022/08/20 07:40:19;;;;;;;5.70;4.50;;;;;;;29.40;46.36;100380.20;104440;1309;61292;-81
2022/08/20 07:42:47;;;;;;;5.80;4.20;;;;;;;29.40;46.47;100378.05;104479;1309;71746;-81
2022/08/20 07:45:14;;;;;;;7.40;4.50;;;;;;;29.40;46.51;100378.92;104600;1309;75858;-81
2022/08/20 07:47:41;;;;;;;8.40;4.30;;;;;;;29.40;46.49;100376.20;104612;1308;62083;-81
2022/08/20 07:50:12;;;;;;;6.50;4.40;;;;;;;29.41;46.27;100375.96;104459;1309;61181;-80
2022/08/20 07:52:38;;;;;;;6.70;4.60;;;;;;;29.40;46.54;100366.55;104517;1309;72680;-80
2022/08/20 07:55:09;;;;;;;5.50;4.30;;;;;;;29.40;46.47;100365.27;104411;1309;61355;-81
2022/08/20 07:57:38;;;;;;;7.10;4.00;;;;;;;29.41;46.29;100368.34;104555;1309;61238;-80
2022/08/20 08:00:04;;;;;;;;;;;;;;;29.41;46.48;100363.98;104583;1309;61635;-79
2022/08/20 08:02:30;;;;;;;7.00;4.00;;;;;;;29.39;46.46;100362.16;104513;1309;72951;-80
2022/08/20 08:04:55;;;;;;;6.30;4.60;;;;;;;29.40;46.45;100353.96;104590;1309;61862;-80
2022/08/20 08:07:21;;;;;;;6.00;4.40;;;;;;;29.40;46.44;100353.73;104506;1309;61268;-80
2022/08/20 08:09:48;;;;;;;6.20;4.20;;;;;;;29.40;46.32;100354.41;104527;1309;61301;-80
2022/08/20 08:12:14;;;;;;;6.10;4.60;;;;;;;29.40;46.31;100350.82;104596;1309;61378;-80
2022/08/20 08:14:40;;;;;;;6.80;4.50;;;;;;;29.41;46.27;100349.34;104592;1309;61278;-80
2022/08/20 08:17:06;;;;;;;5.30;4.10;;;;;;;29.41;46.39;100350.95;104502;1309;61195;-80
2022/08/20 08:19:37;;;;;;;7.40;4.40;;;;;;;29.40;46.19;100351.15;104452;1309;61816;-80
2022/08/20 08:22:10;;;;;;;5.80;4.00;;;;;;;29.41;46.35;100350.36;104532;1309;73720;-80
2022/08/20 08:24:36;;;;;;;5.30;4.20;;;;;;;29.41;46.29;100341.33;104403;1309;75808;-80
2022/08/20 08:27:01;;;;;;;5.70;4.00;;;;;;;29.41;46.31;100341.33;104510;1309;61393;-80
2022/08/20 08:29:28;;;;;;;7.30;4.40;;;;;;;29.41;46.45;100335.17;104452;1309;61257;-80
2022/08/20 08:31:54;;;;;;;6.30;4.30;;;;;;;29.41;46.39;100328.58;104534;1308;61374;-80
2022/08/20 08:34:20;;;;;;;6.90;4.20;;;;;;;29.41;46.34;100326.61;104439;1310;61290;-80
2022/08/20 08:36:45;;;;;;;6.20;4.40;;;;;;;29.42;46.29;100329.46;104434;1309;61268;-80
2022/08/20 08:39:11;;;;;;;6.00;4.30;;;;;;;29.41;46.27;100328.20;104591;1309;61283;-83
2022/08/20 08:41:48;;;;;;;5.40;4.00;;;;;;;29.41;46.20;100317.16;104625;1309;61373;-81
2022/08/20 08:44:32;;;;;;;;;;;;;;;;;;;;;
2022/08/20 08:47:21;;;;;;;5.20;4.00;;;;;;;29.42;46.50;100313.69;104561;1309;74737;-81
2022/08/20 08:49:47;;;;;;;5.90;4.30;;;;;;;29.41;46.46;100314.10;104510;1309;61194;-80
2022/08/20 08:52:24;;;;;;;6.00;4.00;;;;;;;29.41;46.53;100314.98;104535;1309;61354;-81
2022/08/20 08:54:52;;;;;;;6.50;3.90;;;;;;;29.42;46.34;100312.37;104475;1309;73862;-81
2022/08/20 08:57:18;;;;;;;5.30;3.80;;;;;;;29.42;46.18;100312.23;104599;1309;75984;-81
2022/08/20 08:59:53;;;;;;;6.20;3.90;;;;;;;29.41;46.24;100309.34;104539;1309;61272;-79
2022/08/20 09:02:20;;;;;;;5.90;4.20;;;;;;;29.42;46.14;100312.39;104648;1309;61176;-79
2022/08/20 09:04:46;;;;;;;5.60;4.40;;;;;;;29.42;46.40;100309.13;104544;1309;73904;-81
2022/08/20 09:07:13;;;;;;;6.20;4.40;;;;;;;29.41;46.25;100305.54;104603;1308;61271;-81
2022/08/20 09:09:40;;;;;;;6.00;4.30;;;;;;;29.41;46.32;100301.76;104406;1309;61506;-81
2022/08/20 09:12:16;;;;;;;6.00;4.00;;;;;;;29.41;46.28;100302.48;105057;1309;60380;-80
2022/08/20 09:14:44;;;;;;;5.30;4.10;;;;;;;29.42;46.29;100301.86;104519;1309;73729;-80
2022/08/20 09:17:10;;;;;;;5.90;4.10;;;;;;;29.42;46.48;100299.27;104537;1309;76008;-80
2022/08/20 09:19:36;;;;;;;7.70;4.30;;;;;;;29.42;46.34;100297.65;104535;1309;61374;-80
2022/08/20 09:22:14;;;;;;;5.50;4.10;;;;;;;29.42;46.22;100299.82;104599;1309;61232;-79
2022/08/20 09:24:40;;;;;;;5.70;4.10;;;;;;;29.43;46.17;100302.67;104516;1309;73880;-80
2022/08/20 09:27:06;;;;;;;5.80;4.20;;;;;;;29.42;46.25;100303.83;104535;1309;61284;-80
2022/08/20 09:29:32;;;;;;;5.20;4.00;;;;;;;29.42;46.45;100301.79;104502;1309;61285;-81
2022/08/20 09:32:09;;;;;;;6.00;4.30;;;;;;;29.42;46.26;100297.10;104506;1309;61261;-80
2022/08/20 09:34:40;;;;;;;5.50;4.10;;;;;;;29.43;46.27;100293.10;104496;1309;72451;-80
2022/08/20 09:37:05;;;;;;;5.30;4.10;;;;;;;29.42;46.32;100297.64;104408;1310;73466;-80
2022/08/20 09:39:31;;;;;;;6.10;4.00;;;;;;;29.42;46.28;100293.13;104545;1309;61916;-80
2022/08/20 09:42:11;;;;;;;5.00;3.90;;;;;;;29.42;46.09;100289.70;104605;1308;61287;-80
2022/08/20 09:44:37;;;;;;;6.80;4.20;;;;;;;29.42;46.26;100285.73;104555;1309;73774;-79
2022/08/20 09:47:02;;;;;;;4.90;4.10;;;;;;;29.41;46.24;100283.41;104596;1308;62569;-79
2022/08/20 09:49:28;;;;;;;8.30;4.30;;;;;;;29.43;46.31;100278.61;104517;1309;61281;-79
2022/08/20 09:51:54;;;;;;;8.30;4.20;;;;;;;29.42;46.29;100273.76;104582;1309;61378;-79
2022/08/20 09:54:20;;;;;;;5.40;4.20;;;;;;;29.42;46.39;100274.50;104612;1309;61271;-79
2022/08/20 09:56:46;;;;;;;5.80;4.40;;;;;;;29.42;46.25;100273.05;104604;1309;61375;-80
2022/08/20 09:59:12;;;;;;;4.80;4.00;;;;;;;29.42;46.29;100269.06;104557;1309;61323;-79
2022/08/20 10:01:37;;;;;;;5.40;4.10;;;;;;;29.41;46.44;100265.13;104600;1309;61441;-79
2022/08/20 10:04:03;;;;;;;5.90;4.10;;;;;;;29.42;46.04;100259.81;104602;1309;61396;-80
2022/08/20 10:06:29;;;;;;;6.10;4.40;;;;;;;29.42;46.19;100254.75;104402;1309;61255;-80
2022/08/20 10:08:54;;;;;;;4.80;4.00;;;;;;;29.42;46.24;100256.95;104316;1309;61412;-80
2022/08/20 10:11:20;;;;;;;6.00;4.20;;;;;;;29.42;46.22;100254.55;104406;1309;61303;-80
2022/08/20 10:13:46;;;;;;;5.30;4.20;;;;;;;29.42;46.08;100252.76;104498;1309;61243;-80
2022/08/20 10:16:12;;;;;;;5.40;4.20;;;;;;;29.42;46.18;100250.36;104445;1309;61152;-80
2022/08/20 10:18:38;;;;;;;5.00;3.80;;;;;;;29.42;46.29;100243.89;104636;1308;61406;-80
2022/08/20 10:21:09;;;;;;;5.50;4.10;;;;;;;29.42;46.34;100247.30;104612;1307;61278;-80
2022/08/20 10:23:34;;;;;;;5.80;4.00;;;;;;;29.42;46.11;100251.66;104535;1309;61161;-80
2022/08/20 10:26:00;;;;;;;4.60;3.90;;;;;;;29.42;46.17;100249.29;104607;1309;61341;-80
2022/08/20 10:28:26;;;;;;;6.00;4.00;;;;;;;29.42;46.03;100245.50;104223;1309;61293;-80
2022/08/20 10:30:51;;;;;;;5.90;4.00;;;;;;;29.42;46.15;100243.30;104542;1308;61234;-80
2022/08/20 10:33:17;;;;;;;6.00;4.30;;;;;;;29.42;46.03;100239.13;104506;1308;61335;-80
2022/08/20 10:35:43;;;;;;;5.60;3.90;;;;;;;29.42;45.92;100239.45;104622;1309;61494;-80
2022/08/20 10:38:08;;;;;;;6.40;4.20;;;;;;;29.42;45.98;100237.29;104417;1309;61150;-80
2022/08/20 10:40:34;;;;;;;4.70;3.90;;;;;;;29.42;46.01;100236.21;104507;1309;61285;-80
2022/08/20 10:43:00;;;;;;;6.40;4.00;;;;;;;29.42;45.99;100241.10;104469;1309;61403;-80
2022/08/20 10:45:25;;;;;;;5.30;4.00;;;;;;;29.42;46.00;100242.96;104473;1309;61220;-80
2022/08/20 10:47:51;;;;;;;5.80;4.10;;;;;;;29.42;45.93;100236.20;104529;1309;61223;-80
2022/08/20 10:50:18;;;;;;;5.10;3.90;;;;;;;29.42;46.05;100234.77;104437;1309;61245;-80
2022/08/20 10:52:45;;;;;;;4.70;4.00;;;;;;;29.42;45.87;100229.88;104425;1309;73807;-80
2022/08/20 10:55:10;;;;;;;5.20;4.00;;;;;;;29.42;45.72;100228.11;104426;1309;61202;-80
2022/08/20 10:57:37;;;;;;;5.00;3.90;;;;;;;29.41;45.80;100233.38;104542;1309;61297;-80
2022/08/20 11:00:06;;;;;;;5.20;4.10;;;;;;;29.41;45.71;100235.25;104505;1307;61313;-80
2022/08/20 11:02:32;;;;;;;5.20;4.30;;;;;;;29.41;45.87;100235.09;104520;1309;72967;-81
2022/08/20 11:04:57;;;;;;;5.40;4.00;;;;;;;29.41;45.61;100231.48;104488;1309;61265;-80
2022/08/20 11:07:34;;;;;;;6.20;4.10;;;;;;;29.41;45.84;100225.84;104521;1309;61363;-80
2022/08/20 11:10:00;;;;;;;4.90;4.20;;;;;;;29.41;46.01;100218.25;104488;1309;61477;-81
2022/08/20 11:12:26;;;;;;;5.00;4.20;;;;;;;29.40;45.84;100211.77;104469;1309;61201;-80
2022/08/20 11:14:53;;;;;;;5.50;4.00;;;;;;;29.40;45.69;100209.59;104533;1309;61365;-80
2022/08/20 11:17:27;;;;;;;5.70;4.30;;;;;;;29.41;45.89;100207.89;104547;1309;61305;-80
2022/08/20 11:19:53;;;;;;;5.60;4.10;;;;;;;29.40;45.82;100210.35;104527;1308;61150;-81
2022/08/20 11:22:19;;;;;;;5.60;4.20;;;;;;;29.40;45.72;100215.59;104436;1309;61190;-81
2022/08/20 11:24:44;;;;;;;5.90;4.20;;;;;;;29.40;45.58;100212.91;104487;1308;61389;-81
2022/08/20 11:27:10;;;;;;;6.00;4.30;;;;;;;29.40;45.69;100211.95;104511;1309;61436;-81